createdAt,value
2023-05-11T00:01:12.197Z,14.95
2023-05-11T00:06:16.128Z,17.48
2023-05-11T00:11:20.232Z,14.90
2023-05-11T00:16:24.318Z,13.32
2023-05-11T00:21:28.437Z,12.30
2023-05-11T00:26:32.302Z,13.80
2023-05-11T00:31:36.574Z,13.82
2023-05-11T00:36:41.407Z,12.98
2023-05-11T00:41:45.737Z,14.05
2023-05-11T00:46:50.227Z,13.80
2023-05-11T00:51:54.416Z,11.27
2023-05-11T00:56:58.580Z,14.35
2023-05-11T01:02:03.790Z,14.75
2023-05-11T01:07:13.847Z,15.25
2023-05-11T01:12:23.698Z,32.88
2023-05-11T01:17:44.572Z,29.55
2023-05-11T01:23:19.055Z,19.70
2023-05-11T01:28:58.935Z,19.67
2023-05-11T01:34:07.112Z,20.20
2023-05-11T01:39:14.586Z,21.33
2023-05-11T01:44:22.416Z,17.92
2023-05-11T01:49:27.858Z,22.83
2023-05-11T01:54:33.282Z,17.95
2023-05-11T01:59:40.299Z,16.58
2023-05-11T02:04:46.710Z,19.55
2023-05-11T02:09:52.107Z,18.15
2023-05-11T02:14:58.360Z,18.13
2023-05-11T02:20:05.676Z,23.48
2023-05-11T02:25:11.236Z,18.58
2023-05-11T02:30:16.577Z,16.00
2023-05-11T02:35:30.817Z,15.48
2023-05-11T02:40:40.663Z,15.38
2023-05-11T02:45:48.004Z,16.15
2023-05-11T02:50:55.069Z,11.38
2023-05-11T02:56:01.872Z,11.20
2023-05-11T03:01:09.184Z,7.70
2023-05-11T03:06:13.648Z,8.13
2023-05-11T03:11:19.717Z,10.60
2023-05-11T03:16:27.831Z,7.88
2023-05-11T03:21:32.871Z,13.80
2023-05-11T03:26:38.381Z,11.02
2023-05-11T03:31:42.718Z,12.50
2023-05-11T03:36:50.875Z,13.65
2023-05-11T03:41:57.040Z,9.43
2023-05-11T03:47:04.485Z,8.10
2023-05-11T03:52:09.858Z,7.28
2023-05-11T03:57:16.433Z,10.65
2023-05-11T04:02:20.690Z,9.88
2023-05-11T04:07:24.771Z,7.10
2023-05-11T04:12:29.067Z,6.53
2023-05-11T04:17:32.956Z,11.73
2023-05-11T04:22:37.130Z,5.80
2023-05-11T04:27:41.556Z,6.20
2023-05-11T04:32:45.648Z,12.25
2023-05-11T04:37:49.675Z,9.77
2023-05-11T04:42:53.694Z,7.72
2023-05-11T04:47:57.986Z,7.90
2023-05-11T04:53:02.961Z,7.40
2023-05-11T04:58:07.234Z,7.45
2023-05-11T05:03:11.262Z,9.43
2023-05-11T05:08:15.886Z,8.80
2023-05-11T05:13:19.775Z,8.05
2023-05-11T05:18:23.897Z,10.10
2023-05-11T05:23:28.198Z,15.63
2023-05-11T05:28:32.172Z,18.98
2023-05-11T05:33:37.176Z,22.40
2023-05-11T05:38:41.085Z,16.10
2023-05-11T05:43:45.204Z,20.25
2023-05-11T05:48:50.013Z,30.05
2023-05-11T05:53:54.026Z,19.27
2023-05-11T05:58:58.168Z,21.50
2023-05-11T06:04:02.311Z,19.90
2023-05-11T06:09:08.870Z,20.48
2023-05-11T06:14:12.999Z,25.90
2023-05-11T06:19:18.299Z,26.85
2023-05-11T06:24:22.770Z,23.65
2023-05-11T06:29:26.944Z,23.48
2023-05-11T06:34:31.229Z,27.67
2023-05-11T06:39:38.861Z,29.23
2023-05-11T06:44:45.412Z,24.52
2023-05-11T06:49:49.689Z,27.38
2023-05-11T06:54:53.692Z,28.38
2023-05-11T06:59:57.754Z,31.45
2023-05-11T07:05:01.673Z,29.88
2023-05-11T07:10:08.126Z,28.30
2023-05-11T07:15:13.368Z,26.80
2023-05-11T07:20:18.243Z,29.13
2023-05-11T07:25:22.657Z,28.55
2023-05-11T07:30:26.772Z,28.58
2023-05-11T07:35:30.728Z,29.27
2023-05-11T07:40:36.408Z,25.30
2023-05-11T07:45:40.952Z,25.33
2023-05-11T07:50:45.543Z,27.85
2023-05-11T07:55:49.687Z,27.02
2023-05-11T08:00:53.817Z,28.88
2023-05-11T08:05:58.136Z,31.60
2023-05-11T08:11:02.513Z,27.15
2023-05-11T08:16:07.461Z,26.27
2023-05-11T08:21:12.427Z,22.83
2023-05-11T08:26:16.863Z,24.08
2023-05-11T08:31:20.730Z,25.00
2023-05-11T08:36:24.942Z,25.13
2023-05-11T08:41:28.994Z,25.25
2023-05-11T08:46:36.858Z,23.95
2023-05-11T08:51:41.640Z,20.73
2023-05-11T08:56:48.606Z,27.20
2023-05-11T09:01:54.020Z,23.88
2023-05-11T09:06:58.959Z,20.75
2023-05-11T09:12:03.292Z,27.08
2023-05-11T09:17:07.521Z,21.55
2023-05-11T09:22:11.694Z,21.52
2023-05-11T09:27:21.283Z,21.55
2023-05-11T09:32:25.866Z,21.00
2023-05-11T09:37:30.128Z,20.63
2023-05-11T09:42:34.251Z,22.13
2023-05-11T09:47:41.815Z,22.92
2023-05-11T09:52:53.062Z,20.17
2023-05-11T09:57:59.015Z,20.50
2023-05-11T10:03:08.515Z,19.35
2023-05-11T10:08:12.604Z,21.30
2023-05-11T10:13:17.606Z,20.67
2023-05-11T10:18:22.645Z,21.45
2023-05-11T10:23:34.638Z,22.33
2023-05-11T10:28:39.645Z,19.73
2023-05-11T10:33:44.374Z,20.80
2023-05-11T10:38:48.342Z,20.88
2023-05-11T10:44:36.639Z,21.50
2023-05-11T10:50:21.436Z,19.58
2023-05-11T10:56:06.883Z,20.33
2023-05-11T11:01:40.415Z,19.02
2023-05-11T11:06:45.135Z,18.33
2023-05-11T11:11:51.894Z,22.58
2023-05-11T11:17:43.769Z,19.40
2023-05-11T11:22:48.004Z,19.80
2023-05-11T11:27:53.386Z,18.42
2023-05-11T11:33:09.531Z,19.38
2023-05-11T11:38:22.439Z,19.05
2023-05-11T11:43:29.547Z,22.73
2023-05-11T11:48:38.468Z,24.70
2023-05-11T11:53:43.087Z,27.67
2023-05-11T11:58:47.305Z,29.52
2023-05-11T12:04:06.379Z,24.08
2023-05-11T12:09:10.530Z,23.07
2023-05-11T12:14:14.801Z,22.00
2023-05-11T12:19:25.511Z,23.65
2023-05-11T12:24:29.659Z,26.27
2023-05-11T12:29:34.109Z,23.02
2023-05-11T12:34:38.533Z,22.42
2023-05-11T12:39:42.583Z,21.77
2023-05-11T12:44:46.695Z,22.40
2023-05-11T12:49:51.611Z,21.85
2023-05-11T12:55:00.644Z,20.30
2023-05-11T13:00:16.211Z,21.73
2023-05-11T13:05:29.039Z,27.80
2023-05-11T13:10:33.291Z,21.77
2023-05-11T13:15:52.609Z,25.50
2023-05-11T13:21:10.302Z,26.45
2023-05-11T13:26:26.498Z,21.50
2023-05-11T13:31:30.693Z,25.52
2023-05-11T13:36:34.896Z,25.15
2023-05-11T13:41:39.303Z,25.10
2023-05-11T13:46:43.272Z,22.33
2023-05-11T13:51:47.245Z,20.42
2023-05-11T13:56:51.422Z,22.23
2023-05-11T14:01:55.547Z,22.02
2023-05-11T14:07:00.116Z,24.58
2023-05-11T14:12:04.228Z,19.83
2023-05-11T14:17:08.352Z,22.60
2023-05-11T14:22:12.283Z,20.30
2023-05-11T14:27:16.604Z,23.77
2023-05-11T14:32:20.924Z,24.13
2023-05-11T14:37:25.020Z,22.00
2023-05-11T14:42:30.366Z,21.88
2023-05-11T14:47:34.440Z,23.73
2023-05-11T14:52:38.464Z,24.23
2023-05-11T14:57:43.095Z,26.25
2023-05-11T15:02:48.109Z,23.95
2023-05-11T15:07:51.975Z,24.88
2023-05-11T15:12:56.436Z,28.83
2023-05-11T15:18:00.549Z,36.60
2023-05-11T15:23:06.731Z,34.83
2023-05-11T15:28:12.430Z,36.60
2023-05-11T15:33:17.428Z,58.20
2023-05-11T15:38:22.225Z,42.90
2023-05-11T15:43:26.370Z,27.25
2023-05-11T15:48:30.684Z,26.15
2023-05-11T15:53:34.660Z,66.82
2023-05-11T15:58:38.753Z,71.68
2023-05-11T16:03:42.728Z,44.95
2023-05-11T16:08:46.770Z,41.10
2023-05-11T16:13:50.971Z,45.13
2023-05-11T16:18:55.371Z,57.78
2023-05-11T16:24:00.697Z,51.47
2023-05-11T16:29:04.704Z,34.03
2023-05-11T16:34:09.136Z,35.58
2023-05-11T16:39:13.202Z,35.70
2023-05-11T16:44:17.295Z,31.70
2023-05-11T16:49:21.179Z,47.85
2023-05-11T16:54:27.123Z,36.92
2023-05-11T16:59:33.900Z,30.48
2023-05-11T17:04:37.972Z,45.92
2023-05-11T17:09:42.016Z,43.08
2023-05-11T17:14:46.073Z,42.05
2023-05-11T17:19:51.429Z,45.72
2023-05-11T17:24:55.260Z,36.00
2023-05-11T17:29:59.542Z,44.28
2023-05-11T17:35:04.803Z,46.13
2023-05-11T17:40:10.271Z,49.88
2023-05-11T17:45:14.621Z,43.78
2023-05-11T17:50:18.663Z,41.83
2023-05-11T17:55:22.813Z,33.13
2023-05-11T18:00:28.576Z,33.17
2023-05-11T18:05:44.700Z,34.75
2023-05-11T18:10:52.862Z,38.88
2023-05-11T18:16:00.546Z,42.67
2023-05-11T18:21:11.630Z,43.75
2023-05-11T18:26:17.074Z,51.25
2023-05-11T18:31:21.177Z,45.60
2023-05-11T18:36:25.040Z,42.38
2023-05-11T18:41:29.672Z,36.75
2023-05-11T18:46:33.600Z,38.55
2023-05-11T18:51:37.847Z,41.88
2023-05-11T18:56:41.853Z,38.75
2023-05-11T19:01:48.538Z,46.38
2023-05-11T19:06:53.388Z,40.67
2023-05-11T19:11:57.642Z,43.97
2023-05-11T19:17:02.905Z,45.42
2023-05-11T19:22:09.219Z,50.70
2023-05-11T19:27:14.007Z,81.47
2023-05-11T19:32:19.896Z,67.43
2023-05-11T19:37:23.761Z,49.90
2023-05-11T19:42:38.338Z,65.13
2023-05-11T19:47:43.513Z,53.72
2023-05-11T19:52:48.209Z,52.50
2023-05-11T19:57:52.481Z,44.08
2023-05-11T20:02:58.187Z,44.85
2023-05-11T20:08:02.246Z,47.97
2023-05-11T20:13:07.103Z,43.63
2023-05-11T20:18:11.454Z,42.42
2023-05-11T20:23:15.557Z,44.83
2023-05-11T20:28:22.905Z,45.35
2023-05-11T20:38:33.831Z,42.25
2023-05-11T20:43:37.868Z,48.42
2023-05-11T20:48:43.641Z,42.08
2023-05-11T20:53:50.493Z,51.45
2023-05-11T20:58:56.052Z,46.97
2023-05-11T21:04:00.051Z,43.15
2023-05-11T21:09:05.080Z,45.85
2023-05-11T21:14:09.154Z,53.22
2023-05-11T21:19:13.706Z,83.57
2023-05-11T21:24:18.904Z,53.38
2023-05-11T21:29:22.691Z,50.78
2023-05-11T21:34:26.682Z,45.80
2023-05-11T21:39:30.720Z,42.60
2023-05-11T21:44:34.542Z,50.00
2023-05-11T21:49:38.632Z,50.05
2023-05-11T21:54:42.495Z,50.28
2023-05-11T21:59:46.533Z,40.45
2023-05-11T22:04:51.368Z,38.75
2023-05-11T22:09:55.155Z,39.08
2023-05-11T22:14:59.461Z,35.78
2023-05-11T22:20:07.082Z,40.55
2023-05-11T22:25:11.701Z,42.85
2023-05-11T22:30:15.810Z,45.80
2023-05-11T22:35:20.168Z,56.20
2023-05-11T22:40:24.091Z,55.35
2023-05-11T22:45:28.051Z,48.22
2023-05-11T22:50:31.840Z,45.92
2023-05-11T22:55:35.974Z,41.10
2023-05-11T23:00:41.532Z,39.75
2023-05-11T23:05:45.377Z,40.53
2023-05-11T23:10:51.501Z,43.30
2023-05-11T23:15:55.366Z,40.35
2023-05-11T23:21:00.330Z,42.08
2023-05-11T23:26:04.530Z,44.75
2023-05-11T23:31:08.530Z,44.97
2023-05-11T23:36:12.398Z,44.90
2023-05-11T23:41:16.566Z,41.85
2023-05-11T23:46:20.586Z,47.17
2023-05-11T23:51:25.515Z,47.78
2023-05-11T23:56:29.641Z,41.53
